Time;durP1;ratioP1;P1;durP2;ratioP2;P2;SDS_P1;SDS_P2;PMS_P1;PMS_P2;Temp;Humidity;BMP_temperature;BMP_pressure;BME280_temperature;BME280_humidity;BME280_pressure;Samples;Min_cycle;Max_cycle;Signal;HPM_P1;HPM_P2
2023/07/14 00:00:39;;;;;;;;;;;22.40;36.50;;;21.65;35.70;101387.16;12246267;19;20233;-86
2023/07/14 00:04:41;;;;;;;;;;;22.30;36.70;;;21.52;35.75;101375.97;12251806;19;19915;-86
2023/07/14 00:08:43;;;;;;;;;;;22.20;36.40;;;21.46;35.96;101373.88;12255126;19;19947;-86
2023/07/14 00:12:47;;;;;;;;;;;22.10;36.40;;;21.41;35.69;101390.22;12255087;19;19915;-86
2023/07/14 00:16:48;;;;;;;;;;;22.00;36.40;;;21.37;36.05;101394.13;12257083;19;19911;-86
2023/07/14 00:20:50;;;;;;;;;;;21.90;36.50;;;21.28;35.77;101394.94;12255422;19;19918;-86
2023/07/14 00:24:52;;;;;;;;;;;21.90;36.60;;;21.21;35.99;101382.22;12254770;19;19907;-87
2023/07/14 00:28:53;;;;;;;;;;;21.80;36.70;;;21.25;35.93;101389.91;12257028;19;19919;-86
2023/07/14 00:32:55;;;;;;;;;;;21.90;36.70;;;21.10;36.05;101365.56;12250820;19;19947;-86
2023/07/14 00:36:57;;;;;;;;;;;21.80;36.70;;;21.10;36.11;101376.19;12254783;19;19919;-86
2023/07/14 00:40:58;;;;;;;;;;;21.80;36.70;;;21.07;36.17;101379.97;12249926;19;20543;-86
2023/07/14 00:45:09;;;;;;;;;;;21.70;36.70;;;21.00;36.40;101387.63;12249316;19;20330;-87
2023/07/14 00:49:31;;;;;;;;;;;21.70;36.80;;;20.96;36.50;101386.22;12252225;19;19983;-86
2023/07/14 00:53:35;;;;;;;;;;;21.60;36.70;;;20.82;35.88;101369.81;12249676;19;19919;-86
2023/07/14 00:57:38;;;;;;;;;;;21.50;37.00;;;20.81;36.48;101384.09;12251006;19;19940;-86
2023/07/14 01:02:10;;;;;;;;;;;21.50;37.00;;;20.81;36.19;101379.59;12250687;19;19922;-86
2023/07/14 01:06:17;;;;;;;;;;;21.40;37.00;;;20.67;36.21;101367.56;12251879;19;20282;-87
2023/07/14 01:10:23;;;;;;;;;;;21.30;37.00;;;20.60;36.37;101379.66;12251549;19;19934;-86
2023/07/14 01:14:32;;;;;;;;;;;21.30;37.10;;;20.47;36.36;101374.59;12249918;19;19911;-87
2023/07/14 01:18:33;;;;;;;;;;;21.20;37.00;;;20.40;36.52;101369.94;12253477;19;19924;-86
2023/07/14 01:22:45;;;;;;;;;;;21.10;37.00;;;20.44;36.53;101381.94;12249309;19;20326;-86
2023/07/14 01:26:56;;;;;;;;;;;21.10;37.10;;;20.46;36.54;101388.81;12250375;19;20362;-85
2023/07/14 01:30:57;;;;;;;;;;;21.10;37.10;;;20.22;36.66;101348.47;12252362;19;19926;-86
2023/07/14 01:34:59;;;;;;;;;;;21.00;37.70;;;20.28;36.67;101374.47;12251456;19;19978;-87
2023/07/14 01:39:03;;;;;;;;;;;21.00;37.20;;;20.07;36.93;101353.31;12250203;19;19936;-85
2023/07/14 01:43:08;;;;;;;;;;;21.00;37.20;;;20.30;36.88;101393.75;12247459;19;20270;-86
2023/07/14 01:47:11;;;;;;;;;;;21.00;37.20;;;20.24;36.90;101376.56;12251336;19;19922;-86
2023/07/14 01:51:15;;;;;;;;;;;20.90;37.30;;;20.25;37.08;101391.50;12246970;19;20240;-86
2023/07/14 01:55:19;;;;;;;;;;;21.00;37.40;;;20.30;36.77;101407.84;12250847;19;19996;-86
2023/07/14 01:59:24;;;;;;;;;;;20.90;37.40;;;20.29;37.24;101408.00;12250447;19;20364;-85
2023/07/14 02:03:53;;;;;;;;;;;21.00;37.40;;;20.30;37.29;101409.66;12246391;19;20322;-85
2023/07/14 02:07:56;;;;;;;;;;;21.00;37.40;;;19.98;37.28;101352.28;12250357;19;20390;-86
2023/07/14 02:12:25;;;;;;;;;;;21.00;37.40;;;20.28;36.91;101415.13;12250218;19;19915;-85
2023/07/14 02:16:27;;;;;;;;;;;21.00;37.40;;;20.21;37.35;101408.66;12246847;19;19934;-86
2023/07/14 02:20:34;;;;;;;;;;;20.90;37.40;;;20.10;37.06;101403.41;12247741;19;19925;-86
2023/07/14 02:24:35;;;;;;;;;;;20.90;37.40;;;20.12;37.44;101414.75;12247827;19;19922;-86
2023/07/14 02:28:37;;;;;;;;;;;20.90;37.40;;;20.08;37.56;101413.31;12249397;19;19918;-86
2023/07/14 02:32:44;;;;;;;;;;;20.90;37.50;;;20.07;37.43;101423.06;12248185;19;19982;-85
2023/07/14 02:36:56;;;;;;;;;;;20.80;37.40;;;20.09;37.35;101425.59;12249234;19;19910;-86
2023/07/14 02:41:17;;;;;;;;;;;20.80;37.50;;;20.01;37.75;101428.91;12250795;19;19982;-86
2023/07/14 02:45:19;;;;;;;;;;;20.80;37.50;;;19.88;37.34;101417.66;12248120;19;19925;-85
2023/07/14 02:49:21;;;;;;;;;;;20.70;37.50;;;19.69;37.42;101389.19;12247006;19;19926;-86
2023/07/14 02:53:23;;;;;;;;;;;20.70;37.60;;;19.94;37.54;101440.97;12245511;19;20526;-85
2023/07/14 02:57:24;;;;;;;;;;;20.70;37.60;;;19.84;37.72;101425.00;12243970;19;20024;-87
2023/07/14 03:01:32;;;;;;;;;;;20.70;37.60;;;19.80;37.54;101420.94;12245657;19;19934;-86
2023/07/14 03:05:34;;;;;;;;;;;20.60;37.60;;;19.87;37.42;101437.16;12247841;19;19930;-85
2023/07/14 03:09:35;;;;;;;;;;;20.60;37.70;;;19.88;37.48;101439.69;12247580;19;19917;-85
2023/07/14 03:13:37;;;;;;;;;;;20.60;37.80;;;19.89;37.77;101453.78;12244575;19;19931;-85
2023/07/14 03:17:39;;;;;;;;;;;20.60;37.80;;;19.89;37.77;101457.25;12246085;19;20280;-85
2023/07/14 03:21:40;;;;;;;;;;;20.60;37.80;;;19.81;37.72;101442.97;12246198;19;19921;-85
2023/07/14 03:25:42;;;;;;;;;;;20.60;38.20;;;19.61;38.03;101410.16;12247360;19;19919;-85
2023/07/14 03:29:44;;;;;;;;;;;20.60;37.90;;;19.80;37.65;101443.94;12246428;19;19923;-87
2023/07/14 03:33:45;;;;;;;;;;;20.60;37.90;;;19.79;38.05;101453.69;12240697;19;19923;-87
2023/07/14 03:37:47;;;;;;;;;;;20.50;37.90;;;19.64;37.85;101431.91;12242307;19;19954;-87
2023/07/14 03:41:49;;;;;;;;;;;20.50;37.90;;;19.68;37.85;101443.13;12243399;19;19927;-87
2023/07/14 03:45:51;;;;;;;;;;;20.60;38.00;;;19.75;38.09;101454.91;12248394;19;19930;-87
2023/07/14 03:49:53;;;;;;;;;;;20.50;38.00;;;19.76;37.98;101459.25;12249375;19;19949;-86
2023/07/14 03:53:54;;;;;;;;;;;20.50;38.00;;;19.68;37.83;101443.13;12246762;19;19914;-87
2023/07/14 03:57:56;;;;;;;;;;;20.50;38.20;;;19.64;38.11;101433.75;12248649;19;19942;-88
2023/07/14 04:01:58;;;;;;;;;;;20.50;38.20;;;19.78;38.38;101454.66;12250101;19;19942;-87
2023/07/14 04:05:59;;;;;;;;;;;20.60;38.20;;;19.70;38.27;101440.38;12249426;19;20598;-89
2023/07/14 04:10:04;;;;;;;;;;;20.60;38.30;;;19.69;37.99;101444.00;12257134;19;19957;-86
2023/07/14 04:14:07;;;;;;;;;;;20.60;38.30;;;19.76;38.33;101451.28;12253724;19;19935;-87
2023/07/14 04:18:09;;;;;;;;;;;20.60;38.30;;;19.79;38.43;101458.97;12259344;19;19911;-88
2023/07/14 04:22:11;;;;;;;;;;;20.60;38.30;;;19.70;38.36;101441.19;12257819;19;19975;-87
2023/07/14 04:26:13;;;;;;;;;;;20.60;38.30;;;19.77;38.23;101460.94;12258039;19;20338;-87
2023/07/14 04:30:15;;;;;;;;;;;20.60;38.50;;;19.78;38.41;101453.81;12258577;19;20573;-87
2023/07/14 04:34:17;;;;;;;;;;;20.60;38.40;;;19.74;38.73;101458.56;12249160;19;19922;-87
2023/07/14 04:38:19;;;;;;;;;;;20.60;38.50;;;19.80;38.65;101475.75;12255752;19;19923;-88
2023/07/14 04:42:20;;;;;;;;;;;20.60;38.40;;;19.59;38.53;101450.00;12255433;19;19926;-88
2023/07/14 04:46:22;;;;;;;;;;;20.60;38.50;;;19.82;38.48;101487.06;12257466;19;20592;-87
2023/07/14 04:50:25;;;;;;;;;;;20.60;38.60;;;19.77;38.41;101484.78;12255246;19;19921;-87
2023/07/14 04:54:27;;;;;;;;;;;20.70;38.60;;;19.82;38.52;101487.91;12251617;19;19957;-84
2023/07/14 04:58:28;;;;;;;;;;;20.70;38.80;;;19.79;38.70;101477.53;12254699;19;19991;-84
2023/07/14 05:02:30;;;;;;;;;;;20.70;38.70;;;19.89;38.65;101485.59;12246070;19;20273;-84
2023/07/14 05:06:31;;;;;;;;;;;20.70;38.70;;;19.91;38.83;101491.63;12254454;19;19915;-84
2023/07/14 05:10:36;;;;;;;;;;;20.70;38.60;;;19.97;38.93;101488.44;12250139;19;19934;-83
2023/07/14 05:14:37;;;;;;;;;;;20.80;38.80;;;19.87;38.95;101467.19;12246903;19;19925;-84
2023/07/14 05:18:39;;;;;;;;;;;20.90;39.00;;;20.04;38.74;101488.78;12242894;19;19915;-85
2023/07/14 05:22:43;;;;;;;;;;;20.90;39.00;;;19.97;38.69;101475.19;12248884;19;19937;-85
2023/07/14 05:26:44;;;;;;;;;;;20.90;39.00;;;19.99;39.14;101473.25;12254971;19;19923;-83
2023/07/14 05:30:46;;;;;;;;;;;20.90;39.70;;;20.13;39.02;101488.00;12250409;19;19941;-83
2023/07/14 05:34:48;;;;;;;;;;;21.00;39.00;;;20.05;38.99;101469.25;12248373;19;20008;-82
2023/07/14 05:38:50;;;;;;;;;;;21.00;38.90;;;20.15;38.98;101482.59;12251734;19;20338;-83
2023/07/14 05:42:52;;;;;;;;;;;21.10;39.00;;;20.16;39.01;101471.84;12248436;19;19943;-83
2023/07/14 05:46:54;;;;;;;;;;;21.10;39.00;;;20.25;38.94;101473.75;12248145;19;20032;-83
2023/07/14 05:50:56;;;;;;;;;;;21.10;39.40;;;20.39;39.21;101485.84;12247821;19;19910;-83
2023/07/14 05:54:58;;;;;;;;;;;21.30;39.60;;;20.57;39.32;101491.41;12243559;19;19922;-82
2023/07/14 05:59:00;;;;;;;;;;;21.40;39.60;;;20.73;39.38;101504.19;12247310;19;20325;-82
2023/07/14 06:03:01;;;;;;;;;;;21.50;39.80;;;20.86;39.20;101496.03;12245938;19;19932;-83
2023/07/14 06:07:04;;;;;;;;;;;21.70;39.70;;;21.04;39.66;101496.25;12248629;19;19927;-83
2023/07/14 06:11:06;;;;;;;;;;;21.90;39.60;;;21.22;39.32;101499.94;12246701;19;19926;-83
2023/07/14 06:15:08;;;;;;;;;;;22.10;39.80;;;21.33;39.59;101483.03;12243616;19;19926;-83
2023/07/14 06:19:10;;;;;;;;;;;22.30;39.70;;;21.57;39.51;101493.34;12245180;19;19922;-83
2023/07/14 06:23:11;;;;;;;;;;;22.50;39.70;;;21.73;39.69;101503.44;12243316;19;19931;-83
2023/07/14 06:27:14;;;;;;;;;;;22.70;39.60;;;21.65;39.76;101458.94;12247422;19;19922;-84
2023/07/14 06:31:15;;;;;;;;;;;22.90;39.50;;;21.91;39.73;101477.00;12243651;19;20498;-82
2023/07/14 06:35:17;;;;;;;;;;;23.00;39.30;;;22.16;39.51;101494.22;12247404;19;19922;-83
2023/07/14 06:39:19;;;;;;;;;;;23.20;39.10;;;22.25;39.85;101506.69;12245579;19;19931;-84
2023/07/14 06:43:20;;;;;;;;;;;23.30;39.10;;;22.33;39.35;101500.66;12243523;19;19919;-83
2023/07/14 06:47:22;;;;;;;;;;;23.40;39.00;;;22.39;39.56;101492.97;12245680;19;19918;-83
2023/07/14 06:51:24;;;;;;;;;;;23.50;40.00;;;22.43;39.73;101497.00;12247096;19;19943;-83
2023/07/14 06:55:26;;;;;;;;;;;23.50;39.20;;;22.40;39.51;101478.66;12244861;19;20286;-82
2023/07/14 06:59:27;;;;;;;;;;;23.50;39.00;;;22.51;39.77;101491.78;12245761;19;19991;-83
2023/07/14 07:03:30;;;;;;;;;;;23.60;39.10;;;22.60;39.59;101494.56;12242863;19;19923;-83
2023/07/14 07:07:33;;;;;;;;;;;23.70;39.20;;;22.64;39.67;101491.47;12244690;19;19990;-83
2023/07/14 07:11:34;;;;;;;;;;;23.70;38.50;;;22.68;39.52;101495.56;12242420;19;19960;-83
2023/07/14 07:15:36;;;;;;;;;;;23.80;38.70;;;22.77;39.62;101496.50;12243253;19;20662;-82
2023/07/14 07:19:38;;;;;;;;;;;23.80;40.30;;;22.78;39.51;101492.84;12243267;19;19919;-82
2023/07/14 07:23:39;;;;;;;;;;;23.90;39.20;;;22.86;39.84;101490.28;12238544;19;19933;-82
2023/07/14 07:27:41;;;;;;;;;;;23.90;39.80;;;22.99;39.80;101491.81;12240642;19;19922;-82
2023/07/14 07:31:42;;;;;;;;;;;24.00;39.10;;;23.09;39.49;101488.13;12242878;19;19935;-82
2023/07/14 07:35:44;;;;;;;;;;;24.10;39.10;;;23.13;39.40;101470.84;12242354;19;19929;-82
2023/07/14 07:39:46;;;;;;;;;;;24.20;39.10;;;23.32;39.72;101480.56;12242093;19;19939;-83
2023/07/14 07:43:48;;;;;;;;;;;24.30;39.20;;;23.41;39.65;101462.81;12246655;19;20597;-83
2023/07/14 07:47:50;;;;;;;;;;;24.40;39.30;;;23.62;39.69;101471.38;12252760;19;20003;-83
2023/07/14 07:51:51;;;;;;;;;;;24.60;39.10;;;23.82;39.86;101471.28;12254315;19;19923;-83
2023/07/14 07:55:54;;;;;;;;;;;24.80;39.00;;;23.86;39.95;101451.28;12254913;19;19918;-84
2023/07/14 07:59:56;;;;;;;;;;;25.00;38.90;;;24.11;39.99;101456.81;12252192;19;20242;-83
2023/07/14 08:03:58;;;;;;;;;;;25.10;39.10;;;24.18;39.90;101448.03;12248067;19;20275;-83
2023/07/14 08:07:59;;;;;;;;;;;25.30;38.80;;;24.43;39.79;101459.69;12254879;19;19914;-83
2023/07/14 08:12:02;;;;;;;;;;;25.50;38.60;;;24.53;39.83;101454.28;12251794;19;19923;-83
2023/07/14 08:16:04;;;;;;;;;;;25.70;38.50;;;24.74;39.66;101459.25;12253873;19;19910;-83
2023/07/14 08:20:07;;;;;;;;;;;25.80;38.50;;;24.84;39.57;101445.75;12252293;19;19929;-83
2023/07/14 08:24:09;;;;;;;;;;;25.90;38.50;;;25.03;39.91;101450.84;12247238;19;19931;-83
2023/07/14 08:28:11;;;;;;;;;;;26.10;38.50;;;25.19;39.38;101443.91;12253011;19;19911;-83
2023/07/14 08:32:15;;;;;;;;;;;26.20;38.20;;;25.35;39.57;101446.63;12251685;19;19927;-83
2023/07/14 08:36:17;;;;;;;;;;;26.40;38.30;;;25.51;39.30;101446.66;12250334;19;20382;-82
2023/07/14 08:40:27;;;;;;;;;;;26.60;38.10;;;25.66;39.47;101452.19;12251829;19;19911;-83
2023/07/14 08:44:58;;;;;;;;;;;26.70;38.10;;;25.79;39.52;101452.53;12247104;19;19943;-83
2023/07/14 08:49:38;;;;;;;;;;;26.90;38.10;;;25.94;39.24;101458.09;12249296;19;19932;-83
2023/07/14 08:53:42;;;;;;;;;;;27.00;37.90;;;25.97;39.54;101435.50;12243910;19;20301;-83
2023/07/14 08:57:51;;;;;;;;;;;27.10;38.10;;;26.16;39.51;101450.38;12249803;19;19979;-84
2023/07/14 09:01:56;;;;;;;;;;;27.20;37.50;;;26.11;39.19;101426.78;12247788;19;19926;-83
2023/07/14 09:06:02;;;;;;;;;;;27.30;37.40;;;26.34;39.10;101437.63;12248608;19;19919;-84
2023/07/14 09:10:04;;;;;;;;;;;27.40;37.30;;;26.32;38.91;101415.53;12246007;19;20321;-83
2023/07/14 09:14:27;;;;;;;;;;;27.50;37.40;;;26.61;38.95;101441.78;12245134;19;19927;-83
2023/07/14 09:18:50;;;;;;;;;;;27.60;37.50;;;26.75;38.80;101439.38;12249045;19;19922;-83
2023/07/14 09:23:13;;;;;;;;;;;27.80;37.20;;;26.83;39.05;101434.00;12248914;19;19915;-83
2023/07/14 09:27:23;;;;;;;;;;;27.90;37.30;;;26.87;38.51;101427.28;12246630;19;19918;-83
2023/07/14 09:31:28;;;;;;;;;;;28.00;37.20;;;27.01;38.80;101436.44;12246898;19;20040;-84
2023/07/14 09:35:30;;;;;;;;;;;28.10;37.00;;;27.09;38.71;101415.75;12250240;19;19943;-83
2023/07/14 09:39:41;;;;;;;;;;;28.10;37.20;;;27.24;38.87;101413.19;12247571;19;19911;-83
2023/07/14 09:43:45;;;;;;;;;;;28.30;36.40;;;27.32;38.47;101420.34;12244968;19;20306;-83
2023/07/14 09:47:55;;;;;;;;;;;28.40;37.10;;;27.42;38.37;101404.03;12248314;19;19982;-83
2023/07/14 09:52:08;;;;;;;;;;;28.50;37.10;;;27.45;38.37;101393.75;12246397;19;19978;-83
2023/07/14 09:56:16;;;;;;;;;;;28.50;36.90;;;27.59;38.17;101408.22;12246231;19;19918;-83
2023/07/14 10:00:22;;;;;;;;;;;28.70;37.00;;;27.59;38.08;101389.44;12245063;19;19987;-83
2023/07/14 10:04:29;;;;;;;;;;;28.80;36.40;;;27.59;37.57;101400.19;12242674;19;19945;-83
2023/07/14 10:08:44;;;;;;;;;;;28.70;35.70;;;27.58;37.86;101403.91;12244811;19;20285;-84
2023/07/14 10:12:48;;;;;;;;;;;28.70;36.30;;;27.56;37.80;101403.22;12246433;19;19972;-84
2023/07/14 10:16:50;;;;;;;;;;;28.60;36.40;;;27.53;37.92;101380.28;12249396;19;19940;-83
2023/07/14 10:21:00;;;;;;;;;;;28.60;36.40;;;27.63;37.83;101388.09;12247475;19;19923;-82
2023/07/14 10:25:03;;;;;;;;;;;28.60;36.60;;;27.69;37.90;101386.53;12244907;19;19922;-84
2023/07/14 10:29:13;;;;;;;;;;;28.60;36.60;;;27.73;37.73;101390.50;12246159;19;19915;-83
2023/07/14 10:33:42;;;;;;;;;;;28.70;36.50;;;27.76;37.66;101374.88;12242994;19;19948;-83
2023/07/14 10:37:51;;;;;;;;;;;28.70;35.90;;;27.73;37.61;101371.72;12247526;19;20329;-84
2023/07/14 10:41:53;;;;;;;;;;;28.70;36.20;;;27.62;37.31;101340.78;12242341;19;19944;-84
2023/07/14 10:46:01;;;;;;;;;;;28.70;36.40;;;27.62;37.34;101340.78;12244393;19;19930;-84
2023/07/14 10:50:17;;;;;;;;;;;28.70;36.00;;;27.69;37.26;101360.53;12244835;19;20091;-84
2023/07/14 10:54:26;;;;;;;;;;;28.70;36.10;;;27.74;37.18;101370.72;12243285;19;20341;-84
2023/07/14 10:58:30;;;;;;;;;;;28.70;36.20;;;27.76;37.24;101369.53;12245236;19;19932;-83
2023/07/14 11:02:36;;;;;;;;;;;28.60;36.20;;;27.64;37.05;101333.38;12245111;19;19939;-84
2023/07/14 11:06:41;;;;;;;;;;;28.70;36.60;;;27.90;36.87;101351.81;12245436;19;20253;-84
2023/07/14 11:11:03;;;;;;;;;;;28.70;36.30;;;27.97;37.44;101341.97;12245196;19;19918;-84
2023/07/14 11:15:11;;;;;;;;;;;28.80;36.20;;;28.17;37.11;101347.66;12240864;19;19914;-84
2023/07/14 11:19:22;;;;;;;;;;;29.00;34.70;;;28.18;37.04;101335.88;12252094;19;19922;-83
2023/07/14 11:23:36;;;;;;;;;;;29.00;35.30;;;28.28;37.16;101329.41;12251894;19;19927;-84
2023/07/14 11:27:45;;;;;;;;;;;29.10;35.30;;;28.34;36.77;101323.28;12256969;19;19922;-83
2023/07/14 11:31:53;;;;;;;;;;;29.20;35.80;;;28.53;37.11;101324.56;12255124;19;19982;-83
2023/07/14 11:36:15;;;;;;;;;;;29.40;35.90;;;28.64;36.53;101319.53;12254299;19;19923;-83
2023/07/14 11:40:21;;;;;;;;;;;29.50;34.30;;;28.70;36.54;101325.19;12254408;19;19922;-84
2023/07/14 11:44:23;;;;;;;;;;;29.60;35.50;;;28.68;36.45;101293.13;12251615;19;19952;-84
2023/07/14 11:48:45;;;;;;;;;;;29.60;34.90;;;28.89;36.34;101311.97;12255841;19;19929;-83
2023/07/14 11:53:05;;;;;;;;;;;29.70;35.00;;;28.98;36.39;101309.97;12253374;19;20289;-84
2023/07/14 11:57:14;;;;;;;;;;;29.80;35.50;;;29.04;36.40;101309.22;12249375;19;19914;-83
2023/07/14 12:01:23;;;;;;;;;;;29.90;35.50;;;29.10;36.50;101315.69;12249300;19;19915;-83
2023/07/14 12:05:30;;;;;;;;;;;30.00;35.30;;;29.09;36.02;101301.44;12248931;19;19932;-83
2023/07/14 12:09:33;;;;;;;;;;;30.00;35.10;;;29.03;36.30;101283.34;12250965;19;19923;-83
2023/07/14 12:13:38;;;;;;;;;;;30.00;35.10;;;29.18;36.13;101288.66;12244176;19;19922;-84
2023/07/14 12:17:44;;;;;;;;;;;30.00;33.80;;;29.19;35.93;101279.59;12249117;19;19934;-83
2023/07/14 12:21:59;;;;;;;;;;;30.10;34.40;;;29.28;35.90;101286.47;12251062;19;19915;-84
2023/07/14 12:26:13;;;;;;;;;;;30.10;34.40;;;29.34;35.80;101287.56;12251937;19;19918;-85
2023/07/14 12:30:20;;;;;;;;;;;30.20;34.80;;;29.30;35.70;101281.75;12246349;19;20338;-83
2023/07/14 12:34:27;;;;;;;;;;;30.20;33.40;;;29.14;35.85;101259.66;12248522;19;19927;-83
2023/07/14 12:38:28;;;;;;;;;;;30.10;34.70;;;29.20;35.25;101277.72;12252199;19;19927;-85
2023/07/14 12:42:30;;;;;;;;;;;30.00;33.90;;;29.06;35.40;101263.34;12249692;19;19927;-83
2023/07/14 12:46:36;;;;;;;;;;;30.00;34.40;;;29.00;35.58;101251.47;12248867;19;19919;-83
2023/07/14 12:50:40;;;;;;;;;;;29.90;33.90;;;28.90;35.36;101242.88;12252248;19;19914;-83
2023/07/14 12:54:44;;;;;;;;;;;29.90;34.80;;;29.01;35.35;101250.44;12246309;19;19990;-83
2023/07/14 12:58:46;;;;;;;;;;;29.80;35.00;;;29.04;35.36;101250.06;12248030;19;19915;-83
2023/07/14 13:02:49;;;;;;;;;;;29.80;34.40;;;29.04;34.83;101247.38;12249381;19;20275;-87
2023/07/14 13:07:01;;;;;;;;;;;29.80;34.50;;;29.01;35.07;101233.47;12251322;19;20350;-88
2023/07/14 13:11:05;;;;;;;;;;;29.80;34.70;;;29.06;35.19;101226.50;12241832;19;19919;-89
2023/07/14 13:15:18;;;;;;;;;;;29.80;34.80;;;28.99;35.19;101190.63;12247400;19;19915;-88
2023/07/14 13:19:40;;;;;;;;;;;29.80;34.60;;;29.16;35.29;101196.56;12250280;19;19919;-88
2023/07/14 13:23:42;;;;;;;;;;;29.90;34.80;;;29.32;34.75;101198.13;12247814;19;19955;-87
2023/07/14 13:27:44;;;;;;;;;;;30.10;35.00;;;29.47;35.15;101211.47;12251732;19;19911;-87
2023/07/14 13:31:50;;;;;;;;;;;30.20;34.60;;;29.50;35.24;101206.53;12245478;19;19982;-87
2023/07/14 13:36:07;;;;;;;;;;;30.30;34.90;;;29.51;34.75;101192.03;12251504;19;20826;-86
2023/07/14 13:40:20;;;;;;;;;;;30.30;34.80;;;29.43;34.97;101162.59;12249236;19;19926;-87
2023/07/14 13:44:37;;;;;;;;;;;30.30;34.70;;;29.66;34.55;101201.91;12247589;19;19910;-87
2023/07/14 13:48:40;;;;;;;;;;;30.40;34.70;;;29.63;34.81;101178.84;12249453;19;19994;-87
2023/07/14 13:52:41;;;;;;;;;;;30.50;34.80;;;29.60;34.75;101154.19;12251376;19;19907;-86
2023/07/14 13:56:44;;;;;;;;;;;30.50;34.80;;;29.78;34.62;101182.25;12248608;19;19926;-86
2023/07/14 14:00:46;;;;;;;;;;;30.50;34.80;;;29.82;34.78;101181.88;12252335;19;19919;-86
2023/07/14 14:04:48;;;;;;;;;;;30.60;34.80;;;29.75;34.80;101160.31;12248440;19;19918;-87
2023/07/14 14:08:50;;;;;;;;;;;30.60;34.70;;;29.74;34.70;101158.66;12251572;19;19907;-87
2023/07/14 14:12:51;;;;;;;;;;;30.60;34.60;;;29.84;34.31;101166.34;12252174;19;19918;-86
2023/07/14 14:16:53;;;;;;;;;;;30.60;34.60;;;29.64;34.53;101131.25;12249746;19;20301;-87
2023/07/14 14:20:55;;;;;;;;;;;30.60;34.50;;;29.59;34.54;101117.53;12252303;19;20094;-88
2023/07/14 14:24:58;;;;;;;;;;;30.60;34.60;;;29.85;34.23;101144.59;12248757;19;19926;-87
2023/07/14 14:28:59;;;;;;;;;;;30.60;34.20;;;29.85;34.22;101139.22;12255710;19;19923;-88
2023/07/14 14:33:04;;;;;;;;;;;30.60;34.50;;;29.77;34.13;101121.38;12247918;19;19952;-86
2023/07/14 14:37:10;;;;;;;;;;;30.60;34.50;;;29.82;34.19;101117.25;12248056;19;19932;-86
2023/07/14 14:41:23;;;;;;;;;;;30.60;34.50;;;29.97;34.11;101132.22;12244920;19;19918;-86
2023/07/14 14:45:26;;;;;;;;;;;30.60;34.50;;;29.96;34.02;101130.53;12247681;19;19911;-87
2023/07/14 14:49:28;;;;;;;;;;;30.70;34.40;;;29.96;34.29;101129.72;12245577;19;19933;-86
2023/07/14 14:53:33;;;;;;;;;;;30.70;34.40;;;29.92;34.13;101110.47;12242333;19;19915;-87
2023/07/14 14:57:35;;;;;;;;;;;30.70;34.40;;;29.84;33.91;101091.78;12246387;19;19982;-87
2023/07/14 15:01:38;;;;;;;;;;;30.70;34.40;;;30.04;34.11;101108.00;12243976;19;19922;-86
2023/07/14 15:05:40;;;;;;;;;;;30.70;34.30;;;29.99;33.92;101087.03;12243502;19;19927;-87
2023/07/14 15:09:43;;;;;;;;;;;30.70;34.20;;;29.94;34.08;101065.28;12245669;19;19965;-87
2023/07/14 15:13:45;;;;;;;;;;;30.80;34.40;;;30.15;34.02;101077.75;12241823;19;19949;-87
2023/07/14 15:17:47;;;;;;;;;;;30.90;34.30;;;30.21;34.38;101071.53;12246935;19;19922;-87
2023/07/14 15:21:49;;;;;;;;;;;30.90;34.30;;;30.33;33.47;101081.75;12243005;19;19919;-86
2023/07/14 15:25:53;;;;;;;;;;;31.00;34.30;;;30.37;33.65;101082.97;12244334;19;19974;-87
2023/07/14 15:30:17;;;;;;;;;;;31.10;34.30;;;30.40;33.92;101075.31;12242513;19;19919;-88
2023/07/14 15:34:19;;;;;;;;;;;31.10;34.20;;;30.41;33.54;101068.06;12242110;19;19931;-87
2023/07/14 15:38:20;;;;;;;;;;;31.20;34.10;;;30.40;33.60;101066.41;12244977;19;19925;-87
2023/07/14 15:42:22;;;;;;;;;;;31.10;34.00;;;30.34;33.47;101059.97;12243461;19;19919;-87
2023/07/14 15:46:24;;;;;;;;;;;31.10;34.30;;;30.24;33.53;101045.25;12243647;19;20440;-87
2023/07/14 15:50:28;;;;;;;;;;;31.10;33.70;;;30.29;33.43;101059.75;12243415;19;19978;-87
2023/07/14 15:54:33;;;;;;;;;;;31.10;34.00;;;30.29;33.27;101065.16;12237431;19;19922;-87
2023/07/14 15:58:35;;;;;;;;;;;31.10;34.00;;;30.29;33.44;101075.91;12242247;19;19919;-88
2023/07/14 16:02:36;;;;;;;;;;;31.00;33.90;;;30.16;33.60;101057.88;12241646;19;19915;-87
2023/07/14 16:06:38;;;;;;;;;;;30.90;33.80;;;30.13;33.18;101060.13;12253673;19;19949;-87
2023/07/14 16:10:40;;;;;;;;;;;30.90;34.00;;;30.06;33.28;101048.53;12254045;19;19929;-88
2023/07/14 16:14:42;;;;;;;;;;;30.80;33.80;;;30.04;33.35;101042.53;12245825;19;19919;-87
2023/07/14 16:18:44;;;;;;;;;;;30.80;33.90;;;29.99;33.24;101041.25;12254395;19;19919;-87
2023/07/14 16:22:57;;;;;;;;;;;30.80;33.80;;;30.03;33.33;101044.38;12249561;19;20256;-88
2023/07/14 16:26:59;;;;;;;;;;;30.70;33.80;;;29.89;33.31;101021.97;12253757;19;20273;-87
2023/07/14 16:31:01;;;;;;;;;;;30.60;33.90;;;29.99;33.30;101041.25;12251204;19;19919;-87
2023/07/14 16:35:02;;;;;;;;;;;30.60;33.90;;;29.93;33.19;101036.69;12243193;19;19914;-87
2023/07/14 16:39:26;;;;;;;;;;;30.60;34.00;;;29.90;33.21;101029.03;12253287;19;19922;-87
2023/07/14 16:43:28;;;;;;;;;;;30.60;33.90;;;29.96;32.88;101038.97;12249882;19;19923;-87
2023/07/14 16:47:30;;;;;;;;;;;30.60;34.10;;;29.82;33.08;101023.00;12251291;19;20330;-87
2023/07/14 16:51:31;;;;;;;;;;;30.60;34.00;;;29.85;33.15;101031.50;12252851;19;19919;-87
2023/07/14 16:55:33;;;;;;;;;;;30.50;34.10;;;29.75;33.35;101020.28;12253236;19;19935;-87
2023/07/14 16:59:35;;;;;;;;;;;30.50;34.20;;;29.67;33.02;101009.72;12250842;19;19978;-87
2023/07/14 17:03:38;;;;;;;;;;;30.40;34.20;;;29.70;32.99;101018.19;12251018;19;19978;-87
2023/07/14 17:07:44;;;;;;;;;;;30.30;34.00;;;29.70;33.04;101014.69;12244651;19;20305;-87
2023/07/14 17:11:47;;;;;;;;;;;30.30;34.10;;;29.60;32.86;101001.59;12249096;19;20462;-87
2023/07/14 17:15:49;;;;;;;;;;;30.30;34.30;;;29.38;33.05;100965.09;12247229;19;19926;-87
2023/07/14 17:19:50;;;;;;;;;;;30.20;34.40;;;29.36;32.84;100969.88;12251345;19;19915;-87
2023/07/14 17:23:52;;;;;;;;;;;30.10;34.40;;;29.42;33.19;100988.72;12248625;19;20648;-87
2023/07/14 17:27:54;;;;;;;;;;;30.10;34.40;;;29.28;33.10;100971.69;12249571;19;19915;-87
2023/07/14 17:31:56;;;;;;;;;;;30.00;34.50;;;29.29;33.13;100985.97;12249808;19;19907;-87
2023/07/14 17:36:00;;;;;;;;;;;29.90;34.50;;;29.04;33.23;100954.22;12248996;19;20357;-88
2023/07/14 17:40:16;;;;;;;;;;;29.90;34.50;;;29.20;32.99;100988.03;12248080;19;19919;-87
2023/07/14 17:44:27;;;;;;;;;;;29.70;34.40;;;29.11;33.38;100978.44;12248239;19;19919;-87
2023/07/14 17:48:28;;;;;;;;;;;29.70;34.60;;;29.11;33.37;100981.13;12248338;19;19979;-87
2023/07/14 17:52:30;;;;;;;;;;;29.60;34.60;;;28.98;33.18;100965.75;12248956;19;19929;-86
2023/07/14 17:56:31;;;;;;;;;;;29.60;34.70;;;28.76;33.32;100934.63;12249512;19;20404;-87
2023/07/14 18:00:33;;;;;;;;;;;29.60;34.80;;;28.82;33.05;100952.66;12247271;19;19914;-87
2023/07/14 18:04:34;;;;;;;;;;;29.50;34.70;;;28.83;33.50;100957.00;12245302;19;19919;-88
2023/07/14 18:08:36;;;;;;;;;;;29.40;34.70;;;28.84;33.30;100964.88;12247696;19;20318;-88
2023/07/14 18:12:39;;;;;;;;;;;29.40;34.80;;;28.76;33.81;100956.97;12248384;19;19923;-88
2023/07/14 18:16:41;;;;;;;;;;;29.30;34.70;;;28.81;33.54;100969.78;12248293;19;20389;-88
2023/07/14 18:20:42;;;;;;;;;;;29.30;34.80;;;28.71;33.25;100954.03;12247500;19;19914;-88